This is the latest recevied weather packets stored in our database for station/object LY3FF-10. If no packets are shown the sender has not sent any weather packets the latest 1 day(s).
| Time | Temp. | Humidity | Pressure | Rain* | Wind** | Luminosity | Snow |
|---|---|---|---|---|---|---|---|
| 1777988998 | 25.56° C | 35% | 988.6 hPa | - | - | - | - |
| 1777988217 | 29.44° C | 35% | 988.7 hPa | - | - | - | - |
| 1777985699 | 22.78° C | 36% | 988.9 hPa | - | - | - | - |
| 1777984864 | 23.89° C | 36% | 989 hPa | - | - | - | - |
| 1777982388 | 33.33° C | 35% | 989.3 hPa | - | - | - | - |
| 1777980637 | 22.22° C | 36% | 989.3 hPa | - | - | - | - |
| 1777979772 | 33.89° C | 39% | 989.4 hPa | - | - | - | - |
| 1777978966 | 21.67° C | 38% | 989.4 hPa | - | - | - | - |
| 1777977477 | 21.11° C | 37% | 989.6 hPa | - | - | - | - |
| 1777976577 | 21.11° C | 41% | 989.6 hPa | - | - | - | - |
| 1777975742 | 20.56° C | 42% | 989.7 hPa | - | - | - | - |
| 1777974908 | 20.56° C | 40% | 989.8 hPa | - | - | - | - |
| 1777974135 | 28.89° C | 43% | 989.9 hPa | - | - | - | - |
| 1777973382 | 20° C | 45% | 990 hPa | - | - | - | - |
| 1777972575 | 19.44° C | 46% | 990.1 hPa | - | - | - | - |
| 1777971732 | 20.56° C | 47% | 990.1 hPa | - | - | - | - |
| 1777970954 | 20° C | 47% | 990.2 hPa | - | - | - | - |
| 1777970185 | 18.33° C | 49% | 990.2 hPa | - | - | - | - |
| 1777969352 | 19.44° C | 52% | 990.2 hPa | - | - | - | - |
| 1777968517 | 19.44° C | 52% | 990.4 hPa | - | - | - | - |
| 1777967772 | 17.78° C | 54% | 990.4 hPa | - | - | - | - |
| 1777967037 | 17.22° C | 53% | 990.5 hPa | - | - | - | - |
| 1777966217 | 16.67° C | 57% | 990.5 hPa | - | - | - | - |
| 1777965462 | 17.22° C | 60% | 990.5 hPa | - | - | - | - |
| 1777964738 | 15.56° C | 61% | 990.6 hPa | - | - | - | - |
* Rain since midnight (hover to see other rain measurements)
** Current wind speed in m/s (hover to see current wind gust speed)